Time;durP1;ratioP1;P1;durP2;ratioP2;P2;SDS_P1;SDS_P2;PMS_P1;PMS_P2;Temp;Humidity;BMP_temperature;BMP_pressure;BME280_temperature;BME280_humidity;BME280_pressure;Samples;Min_cycle;Max_cycle;Signal;HPM_P1;HPM_P2
2021/06/23 00:01:38;;;;;;;33.88;7.58;;;;;;;21.80;79.78;99210.83;1650616;87;21093;-64
2021/06/23 00:04:05;;;;;;;29.55;7.03;;;;;;;21.78;79.87;99208.84;1630230;88;21167;-64
2021/06/23 00:06:31;;;;;;;23.95;6.92;;;;;;;21.73;80.26;99202.64;1630438;88;21148;-64
2021/06/23 00:08:58;;;;;;;40.30;7.60;;;;;;;21.70;80.51;99205.56;1665122;84;21056;-64
2021/06/23 00:11:24;;;;;;;31.45;7.20;;;;;;;21.66;80.66;99203.68;1630541;88;21087;-63
2021/06/23 00:13:52;;;;;;;40.12;8.03;;;;;;;21.60;80.91;99202.91;1662588;85;20957;-63
2021/06/23 00:16:18;;;;;;;39.88;7.95;;;;;;;21.54;81.14;99201.33;1650875;86;21126;-63
2021/06/23 00:18:46;;;;;;;34.50;7.62;;;;;;;21.49;81.45;99206.19;1630252;88;21516;-64
2021/06/23 00:21:13;;;;;;;32.50;7.53;;;;;;;21.42;81.73;99199.28;1650917;85;21006;-64
2021/06/23 00:23:39;;;;;;;32.73;7.83;;;;;;;21.36;81.89;99194.58;1630570;88;21029;-64
2021/06/23 00:26:05;;;;;;;34.15;7.55;;;;;;;21.30;82.04;99193.31;1630406;88;21105;-64
2021/06/23 00:28:32;;;;;;;30.57;7.53;;;;;;;21.24;82.14;99185.08;1603205;88;21149;-63
2021/06/23 00:30:58;;;;;;;39.35;7.92;;;;;;;21.19;81.99;99178.84;1665037;86;21014;-63
2021/06/23 00:33:29;;;;;;;24.02;7.22;;;;;;;21.15;81.88;99174.82;1630669;88;21548;-63
2021/06/23 00:35:55;;;;;;;33.30;8.05;;;;;;;21.11;81.97;99174.74;1662601;86;21041;-63
2021/06/23 00:38:22;;;;;;;32.08;7.50;;;;;;;21.07;82.14;99177.79;1650492;86;21018;-64
2021/06/23 00:40:49;;;;;;;27.45;6.80;;;;;;;21.02;82.40;99179.52;1630340;88;21171;-64
2021/06/23 00:43:16;;;;;;;33.98;7.97;;;;;;;20.99;82.61;99173.17;1650505;87;21078;-65
2021/06/23 00:45:44;;;;;;;36.48;7.78;;;;;;;20.95;82.80;99185.86;1630243;88;21000;-65
2021/06/23 00:48:16;;;;;;;37.93;7.95;;;;;;;20.93;83.00;99185.16;1662573;86;21009;-64
2021/06/23 00:50:43;;;;;;;29.70;7.12;;;;;;;20.92;83.48;99190.58;1630491;87;20984;-63
2021/06/23 00:53:11;;;;;;;26.73;7.17;;;;;;;20.89;83.78;99193.48;1649037;87;21166;-63
2021/06/23 00:55:40;;;;;;;26.48;7.62;;;;;;;20.85;84.18;99192.08;1611686;86;21032;-64
2021/06/23 00:58:07;;;;;;;40.40;7.53;;;;;;;20.78;84.46;99190.48;1662691;86;21493;-64
2021/06/23 01:00:35;;;;;;;31.80;7.47;;;;;;;20.75;84.87;99193.87;1630188;88;21087;-63
2021/06/23 01:03:03;;;;;;;34.95;7.90;;;;;;;20.70;85.06;99195.59;1650825;87;20971;-64
2021/06/23 01:05:32;;;;;;;29.55;8.20;;;;;;;20.65;85.22;99195.14;1662794;86;21224;-64
2021/06/23 01:07:59;;;;;;;33.92;7.83;;;;;;;20.60;85.28;99191.58;1611570;88;20964;-64
2021/06/23 01:10:35;;;;;;;35.75;8.45;;;;;;;20.55;85.28;99189.84;1662514;86;20969;-64
2021/06/23 01:13:33;;;;;;;28.10;8.05;;;;;;;20.50;85.41;99193.84;1650848;86;20993;-64
2021/06/23 01:16:00;;;;;;;24.82;7.72;;;;;;;20.45;85.51;99190.75;1650578;86;20978;-63
2021/06/23 01:18:27;;;;;;;26.82;7.20;;;;;;;20.42;85.44;99189.70;1650941;87;21065;-64
2021/06/23 01:20:54;;;;;;;29.72;7.33;;;;;;;20.40;85.46;99192.95;1630222;86;21064;-64
2021/06/23 01:23:21;;;;;;;29.95;7.12;;;;;;;20.37;85.59;99186.64;1650891;87;20998;-64
2021/06/23 01:25:50;;;;;;;29.35;6.87;;;;;;;20.37;85.76;99186.16;1650758;86;21490;-64
2021/06/23 01:28:17;;;;;;;35.35;7.83;;;;;;;20.34;85.88;99181.09;1650877;86;21037;-64
2021/06/23 01:30:46;;;;;;;28.77;8.10;;;;;;;20.32;85.65;99176.91;1629866;86;21093;-64
2021/06/23 01:33:28;;;;;;;30.37;6.85;;;;;;;20.30;85.61;99179.69;1630205;87;20978;-64
2021/06/23 01:35:57;;;;;;;32.05;7.05;;;;;;;20.29;85.43;99180.65;1665043;86;21572;-63
2021/06/23 01:38:24;;;;;;;24.45;6.58;;;;;;;20.26;85.28;99175.14;1630340;86;21075;-64
2021/06/23 01:40:52;;;;;;;31.60;6.53;;;;;;;20.25;85.21;99184.03;1632746;88;21495;-64
2021/06/23 01:43:19;;;;;;;38.73;8.03;;;;;;;20.22;85.15;99181.65;1605442;88;21116;-64
2021/06/23 01:45:46;;;;;;;29.00;7.33;;;;;;;20.17;85.13;99185.19;1632837;88;21508;-64
2021/06/23 01:48:15;;;;;;;30.15;6.90;;;;;;;20.15;85.13;99186.28;1618482;88;20999;-64
2021/06/23 01:50:57;;;;;;;29.60;6.62;;;;;;;20.12;85.20;99190.02;1632800;88;21007;-64
2021/06/23 01:53:28;;;;;;;29.00;7.28;;;;;;;20.09;85.30;99191.59;1611428;88;21030;-64
2021/06/23 01:55:55;;;;;;;34.90;7.92;;;;;;;20.08;85.37;99182.00;1618415;88;21175;-64
2021/06/23 01:58:22;;;;;;;33.10;7.50;;;;;;;20.08;85.44;99178.52;1632641;86;20988;-63
2021/06/23 02:01:13;;;;;;;37.58;7.30;;;;;;;20.09;85.41;99180.20;1617367;88;21015;-64
2021/06/23 02:03:58;;;;;;;36.48;7.83;;;;;;;20.10;85.48;99181.88;1633045;88;21481;-64
2021/06/23 02:06:46;;;;;;;23.83;6.40;;;;;;;20.11;85.50;99175.14;1632699;88;21030;-64
2021/06/23 02:10:04;;;;;;;36.58;6.40;;;;;;;20.12;85.47;99183.42;1618487;88;21170;-64
2021/06/23 02:13:01;;;;;;;35.58;6.92;;;;;;;20.13;85.32;99183.77;1628710;86;21119;-64
2021/06/23 02:15:28;;;;;;;28.30;7.10;;;;;;;20.17;85.28;99186.99;1632424;88;21015;-64
2021/06/23 02:18:07;;;;;;;24.37;7.03;;;;;;;20.17;85.25;99184.35;1617933;88;21575;-64
2021/06/23 02:20:39;;;;;;;28.50;7.75;;;;;;;20.20;85.16;99190.19;1629216;88;20987;-64
2021/06/23 02:23:08;;;;;;;34.08;7.12;;;;;;;20.22;85.02;99193.53;1631276;88;21147;-64
2021/06/23 02:25:38;;;;;;;29.67;7.83;;;;;;;20.26;84.92;99190.15;1605298;88;21580;-64
2021/06/23 02:28:20;;;;;;;30.08;7.58;;;;;;;20.28;84.90;99190.86;1633081;88;21028;-64
2021/06/23 02:30:46;;;;;;;31.30;7.90;;;;;;;20.33;84.81;99188.67;1618533;88;21031;-65
2021/06/23 02:33:13;;;;;;;30.50;7.58;;;;;;;20.38;84.66;99192.27;1632909;88;21483;-65
2021/06/23 02:35:43;;;;;;;31.75;7.58;;;;;;;20.41;84.52;99188.86;1632715;88;21970;-65
2021/06/23 02:38:17;;;;;;;28.17;7.80;;;;;;;20.48;84.37;99190.01;1605192;88;21032;-64
2021/06/23 02:40:45;;;;;;;27.65;7.30;;;;;;;20.58;84.03;99194.02;1632794;87;21039;-64
2021/06/23 02:43:12;;;;;;;39.27;7.87;;;;;;;20.69;83.69;99198.36;1618440;88;21000;-64
2021/06/23 02:45:39;;;;;;;32.15;8.13;;;;;;;20.80;83.24;99192.47;1632780;88;21034;-65
2021/06/23 02:48:08;;;;;;;34.85;7.67;;;;;;;20.96;82.60;99191.49;1605394;88;21124;-65
2021/06/23 02:51:02;;;;;;;30.97;6.45;;;;;;;21.10;81.95;99200.83;1631510;88;21043;-65
2021/06/23 02:53:31;;;;;;;34.73;6.95;;;;;;;21.24;81.26;99201.78;1632955;88;20982;-65
2021/06/23 02:55:58;;;;;;;31.93;8.50;;;;;;;21.38;80.52;99201.05;1618379;88;20988;-65
2021/06/23 02:58:25;;;;;;;34.78;7.28;;;;;;;21.47;80.02;99199.72;1632986;88;21088;-65
2021/06/23 03:00:52;;;;;;;40.50;7.25;;;;;;;21.61;79.28;99207.22;1632656;88;21146;-63
2021/06/23 03:03:21;;;;;;;33.78;7.87;;;;;;;21.79;78.64;99206.03;1618640;88;20989;-64
2021/06/23 03:05:48;;;;;;;30.72;7.10;;;;;;;22.04;77.93;99218.36;1632857;88;21553;-64
2021/06/23 03:08:16;;;;;;;31.30;8.08;;;;;;;22.30;76.90;99219.42;1618427;88;21092;-64
2021/06/23 03:10:44;;;;;;;27.37;6.83;;;;;;;22.57;75.79;99220.81;1632693;87;21099;-65
2021/06/23 03:13:16;;;;;;;29.98;7.78;;;;;;;22.88;74.74;99218.73;1618808;87;21202;-65
2021/06/23 03:15:50;;;;;;;30.80;7.87;;;;;;;23.25;73.08;99224.44;1623169;88;21441;-65
2021/06/23 03:18:19;;;;;;;39.18;8.13;;;;;;;23.62;71.92;99223.00;1631911;88;21513;-65
2021/06/23 03:20:45;;;;;;;39.05;7.45;;;;;;;23.97;71.25;99214.19;1618412;88;21537;-65
2021/06/23 03:23:13;;;;;;;33.98;7.62;;;;;;;24.35;69.84;99217.79;1633032;88;21024;-65
2021/06/23 03:25:40;;;;;;;34.38;8.08;;;;;;;24.74;68.62;99227.95;1632706;88;21439;-65
2021/06/23 03:28:06;;;;;;;39.63;7.87;;;;;;;25.03;66.94;99224.92;1619009;88;20984;-66
2021/06/23 03:30:35;;;;;;;37.38;8.08;;;;;;;25.22;65.74;99220.66;1632855;88;21128;-65
2021/06/23 03:33:02;;;;;;;36.63;7.35;;;;;;;25.35;64.46;99217.04;1618412;88;21044;-65
2021/06/23 03:35:30;;;;;;;41.02;7.42;;;;;;;25.37;63.94;99216.38;1632671;86;20996;-65
2021/06/23 03:37:57;;;;;;;26.85;6.40;;;;;;;25.48;63.82;99209.06;1618473;88;22329;-65
2021/06/23 03:40:24;;;;;;;40.30;8.03;;;;;;;25.62;63.04;99211.92;1630665;87;21067;-65
2021/06/23 03:42:52;;;;;;;42.90;8.38;;;;;;;25.74;63.14;99213.28;1662511;85;21426;-65
2021/06/23 03:45:19;;;;;;;25.55;8.60;;;;;;;25.86;62.94;99207.10;1650495;87;21046;-65
2021/06/23 03:47:46;;;;;;;36.35;8.30;;;;;;;25.96;62.74;99206.95;1662493;86;21485;-64
2021/06/23 03:50:15;;;;;;;35.68;8.78;;;;;;;26.04;62.61;99208.25;1630139;88;21189;-65
2021/06/23 03:52:43;;;;;;;35.63;8.90;;;;;;;26.14;61.90;99213.42;1650604;87;20954;-65
2021/06/23 03:55:26;;;;;;;30.92;8.18;;;;;;;26.15;61.47;99201.76;1630402;86;21044;-65
2021/06/23 03:57:41;;;;;;;34.38;8.33;;;;;;;26.21;61.42;99205.05;1660235;86;20966;-65
2021/06/23 04:00:11;;;;;;;38.75;10.35;;;;;;;26.35;60.68;99198.58;1650795;85;21478;-65
2021/06/23 04:02:40;;;;;;;36.30;13.50;;;;;;;26.49;60.08;99199.69;1662070;86;22000;-65
2021/06/23 04:05:11;;;;;;;50.52;17.52;;;;;;;26.64;59.48;99195.80;1650553;87;21493;-65
2021/06/23 04:07:40;;;;;;;57.50;23.25;;;;;;;26.82;59.15;99191.55;1662559;86;21446;-64
2021/06/23 04:10:07;;;;;;;69.03;29.23;;;;;;;26.98;58.67;99186.16;1662525;86;20994;-65
2021/06/23 04:12:35;;;;;;;64.58;30.23;;;;;;;27.13;57.53;99188.94;1662623;86;21073;-65
2021/06/23 04:15:06;;;;;;;46.40;16.52;;;;;;;27.17;57.39;99189.75;1662777;86;21238;-63
2021/06/23 04:17:34;;;;;;;27.67;10.05;;;;;;;27.27;56.74;99185.50;1662369;86;20970;-64
2021/06/23 04:20:05;;;;;;;29.27;8.65;;;;;;;27.36;55.91;99178.61;1662742;86;20974;-64
2021/06/23 04:22:33;;;;;;;37.38;8.60;;;;;;;27.54;55.56;99185.48;1628166;87;21477;-64
2021/06/23 04:25:02;;;;;;;27.02;8.40;;;;;;;27.83;54.17;99181.58;1629501;87;21483;-64
2021/06/23 04:27:29;;;;;;;32.63;7.17;;;;;;;28.16;53.46;99175.94;1602891;89;21176;-64
2021/06/23 04:29:56;;;;;;;32.80;8.00;;;;;;;28.42;52.26;99179.00;1602875;89;21103;-64
2021/06/23 04:32:23;;;;;;;25.75;7.17;;;;;;;28.68;51.51;99174.52;1603056;89;21015;-64
2021/06/23 04:34:52;;;;;;;30.62;6.80;;;;;;;28.93;50.68;99175.06;1664102;86;21840;-64
2021/06/23 04:37:22;;;;;;;28.27;7.30;;;;;;;29.05;49.43;99177.05;1629269;87;21500;-64
2021/06/23 04:39:49;;;;;;;19.95;6.60;;;;;;;29.06;49.44;99176.55;1631068;87;21070;-64
2021/06/23 04:42:16;;;;;;;23.42;6.85;;;;;;;29.06;49.26;99178.72;1605339;88;21048;-64
2021/06/23 04:44:44;;;;;;;29.57;6.37;;;;;;;29.09;49.29;99166.80;1632711;86;21062;-65
2021/06/23 04:47:12;;;;;;;29.45;7.17;;;;;;;29.18;49.24;99161.63;1618507;88;21071;-65
2021/06/23 04:49:38;;;;;;;29.00;6.78;;;;;;;29.37;48.48;99157.02;1633021;88;21082;-65
2021/06/23 04:52:16;;;;;;;30.65;7.03;;;;;;;29.57;48.01;99161.24;1617376;88;21187;-65
2021/06/23 04:54:42;;;;;;;31.35;7.03;;;;;;;29.78;47.56;99153.14;1632765;88;20976;-65
2021/06/23 04:57:10;;;;;;;29.57;6.47;;;;;;;30.06;47.22;99155.87;1618405;88;21020;-65
2021/06/23 04:59:37;;;;;;;32.73;6.67;;;;;;;30.35;46.73;99158.84;1632730;88;21020;-65
2021/06/23 05:02:04;;;;;;;22.85;6.85;;;;;;;30.69;45.73;99152.63;1618483;88;20996;-65
2021/06/23 05:04:31;;;;;;;27.13;5.50;;;;;;;30.99;45.15;99149.62;1632739;88;22336;-64
2021/06/23 05:06:58;;;;;;;24.43;6.28;;;;;;;31.16;44.41;99148.27;1632974;88;21518;-64
2021/06/23 05:09:24;;;;;;;16.07;5.05;;;;;;;31.21;43.50;99140.41;1605361;88;21009;-65
2021/06/23 05:11:51;;;;;;;28.23;5.50;;;;;;;31.13;43.79;99139.27;1654926;86;20998;-65
2021/06/23 05:14:17;;;;;;;20.72;5.15;;;;;;;31.05;43.95;99138.91;1652680;86;20995;-65
2021/06/23 05:16:47;;;;;;;22.50;5.37;;;;;;;31.05;43.55;99142.10;1658443;86;21199;-65
2021/06/23 05:19:14;;;;;;;17.42;5.67;;;;;;;31.09;43.90;99137.47;1658988;86;20990;-64
2021/06/23 05:21:40;;;;;;;18.30;5.62;;;;;;;31.18;43.52;99141.36;1622697;86;21145;-65
2021/06/23 05:24:08;;;;;;;26.57;5.37;;;;;;;31.23;43.37;99140.20;1652034;86;21564;-64
2021/06/23 05:26:35;;;;;;;14.47;4.87;;;;;;;31.27;43.09;99137.43;1653383;86;21049;-64
2021/06/23 05:29:01;;;;;;;17.67;4.80;;;;;;;31.22;42.97;99139.89;1623769;86;21054;-65
2021/06/23 05:31:27;;;;;;;28.35;4.70;;;;;;;31.20;43.26;99133.89;1632593;88;21046;-64
2021/06/23 05:33:54;;;;;;;18.67;4.67;;;;;;;31.26;42.59;99126.37;1618895;88;21022;-63
2021/06/23 05:36:21;;;;;;;19.45;4.22;;;;;;;31.22;42.73;99123.26;1643574;86;21078;-64
2021/06/23 05:38:47;;;;;;;23.18;4.75;;;;;;;31.08;42.72;99126.92;1659649;86;21037;-65
2021/06/23 05:41:15;;;;;;;19.40;4.72;;;;;;;31.01;42.79;99125.56;1659663;86;22186;-65
2021/06/23 05:43:42;;;;;;;22.77;4.55;;;;;;;30.97;43.33;99116.80;1659436;86;20987;-65
2021/06/23 05:46:09;;;;;;;17.20;4.10;;;;;;;31.08;43.00;99110.30;1659577;86;21070;-64
2021/06/23 05:48:35;;;;;;;19.92;4.05;;;;;;;31.18;42.33;99118.52;1661529;85;21548;-66
2021/06/23 05:51:02;;;;;;;15.30;4.35;;;;;;;31.12;42.65;99106.73;1659667;86;21010;-65
2021/06/23 05:53:28;;;;;;;16.65;4.15;;;;;;;31.12;43.51;99109.41;1660223;85;21181;-66
2021/06/23 05:55:55;;;;;;;15.48;4.00;;;;;;;31.24;43.66;99108.28;1659268;85;21082;-66
2021/06/23 05:58:23;;;;;;;12.47;3.77;;;;;;;31.24;42.75;99102.91;1633158;88;21018;-67
2021/06/23 06:00:49;;;;;;;20.15;3.90;;;;;;;31.09;42.42;99098.52;1632649;88;20998;-66
2021/06/23 06:03:15;;;;;;;17.02;3.50;;;;;;;30.88;43.69;99105.40;1632650;87;21632;-66
2021/06/23 06:05:42;;;;;;;9.20;3.20;;;;;;;30.63;43.27;99094.88;1632634;88;21804;-67
2021/06/23 06:08:08;;;;;;;9.00;3.25;;;;;;;30.29;44.21;99107.31;1658999;85;21103;-64
2021/06/23 06:10:35;;;;;;;13.45;3.55;;;;;;;30.02;44.78;99107.66;1657591;86;21083;-65
2021/06/23 06:13:03;;;;;;;13.40;3.55;;;;;;;29.85;45.93;99104.95;1655423;86;21118;-66
2021/06/23 06:15:31;;;;;;;12.40;3.15;;;;;;;29.84;46.28;99099.27;1658327;86;20975;-66
2021/06/23 06:18:04;;;;;;;12.78;3.67;;;;;;;29.83;46.20;99094.93;1658069;86;21195;-65
2021/06/23 06:20:32;;;;;;;11.73;2.87;;;;;;;29.81;46.56;99097.80;1645663;86;21400;-65
2021/06/23 06:22:58;;;;;;;17.77;3.27;;;;;;;29.80;45.86;99100.67;1623983;88;21046;-65
2021/06/23 06:25:27;;;;;;;14.70;3.20;;;;;;;29.73;46.24;99099.31;1644098;87;21502;-66
2021/06/23 06:27:53;;;;;;;17.42;3.22;;;;;;;29.64;46.82;99103.66;1658102;86;21034;-67
2021/06/23 06:30:22;;;;;;;11.38;3.05;;;;;;;29.59;46.56;99108.25;1659588;85;21139;-65
2021/06/23 06:32:50;;;;;;;14.13;3.05;;;;;;;29.59;47.08;99116.30;1658921;85;21010;-66
2021/06/23 06:35:16;;;;;;;13.48;3.37;;;;;;;29.60;47.27;99115.27;1656986;86;20999;-65
2021/06/23 06:37:43;;;;;;;12.28;3.08;;;;;;;29.57;47.16;99116.20;1656427;86;21017;-65
2021/06/23 06:40:10;;;;;;;12.37;3.17;;;;;;;29.49;47.96;99118.49;1632064;87;21089;-66
2021/06/23 06:42:37;;;;;;;13.13;3.15;;;;;;;29.49;47.93;99118.49;1649330;86;21154;-65
2021/06/23 06:45:06;;;;;;;6.75;3.22;;;;;;;29.51;47.87;99128.51;1685073;84;21537;-65
2021/06/23 06:47:34;;;;;;;10.23;3.02;;;;;;;29.43;48.25;99117.91;1685073;84;21066;-65
2021/06/23 06:50:01;;;;;;;8.23;2.47;;;;;;;29.37;48.81;99127.54;1685126;85;21047;-65
2021/06/23 06:52:27;;;;;;;8.85;3.08;;;;;;;29.24;48.24;99122.55;1684736;85;21009;-66
2021/06/23 06:54:54;;;;;;;11.22;2.90;;;;;;;29.10;49.16;99114.91;1685146;85;21199;-65
2021/06/23 06:57:20;;;;;;;8.05;2.80;;;;;;;28.99;49.90;99113.55;1689197;83;20995;-65
2021/06/23 06:59:47;;;;;;;11.05;3.45;;;;;;;28.94;50.08;99124.02;1690123;83;21019;-65
2021/06/23 07:02:14;;;;;;;7.92;3.05;;;;;;;28.96;50.94;99111.78;1689132;85;21486;-65
2021/06/23 07:04:42;;;;;;;7.12;2.70;;;;;;;28.99;51.14;99111.38;1689439;83;21262;-65
2021/06/23 07:07:10;;;;;;;10.43;2.75;;;;;;;29.02;49.28;99120.37;1690073;83;21747;-65
2021/06/23 07:09:36;;;;;;;9.13;3.15;;;;;;;29.01;48.57;99116.86;1689340;84;21005;-67
2021/06/23 07:12:03;;;;;;;10.05;2.70;;;;;;;28.97;48.52;99118.29;1689479;83;20985;-64
2021/06/23 07:14:53;;;;;;;9.65;2.70;;;;;;;28.97;49.33;99119.63;1688871;84;21057;-65
2021/06/23 07:17:28;;;;;;;9.55;2.92;;;;;;;28.99;49.30;99118.89;1677339;84;21093;-65
2021/06/23 07:20:35;;;;;;;7.12;2.52;;;;;;;28.98;48.99;99120.42;1687914;83;21272;-64
2021/06/23 07:23:14;;;;;;;13.68;2.98;;;;;;;29.03;49.73;99128.72;1688091;83;21383;-65
2021/06/23 07:25:41;;;;;;;10.15;2.72;;;;;;;29.03;48.89;99118.84;1675784;85;20971;-66
2021/06/23 07:28:11;;;;;;;11.93;2.52;;;;;;;29.07;49.47;99107.25;1689408;83;21018;-66
2021/06/23 07:30:36;;;;;;;8.03;2.90;;;;;;;29.11;49.14;99122.75;1684565;84;21049;-66
2021/06/23 07:33:07;;;;;;;11.90;4.05;;;;;;;29.12;48.86;99116.88;1672965;85;21099;-66
2021/06/23 07:38:17;;;;;;;8.08;2.65;;;;;;;29.10;48.03;99122.94;1649684;84;21027;-66
2021/06/23 07:40:50;;;;;;;7.55;2.67;;;;;;;29.08;47.67;99120.95;1652024;86;21117;-65
2021/06/23 07:43:12;;;;;;;11.78;2.67;;;;;;;29.13;48.96;99115.36;1680279;83;20966;-66
2021/06/23 07:45:43;;;;;;;6.08;2.90;;;;;;;29.21;47.49;99122.92;1687696;84;21187;-65
2021/06/23 07:48:08;;;;;;;8.80;2.90;;;;;;;29.23;47.29;99120.38;1683636;83;20990;-65
2021/06/23 07:50:41;;;;;;;6.20;2.72;;;;;;;29.25;47.52;99121.53;1686184;83;21045;-65
2021/06/23 07:53:19;;;;;;;11.50;2.90;;;;;;;29.22;47.63;99126.75;1677539;83;21121;-65
2021/06/23 07:55:48;;;;;;;7.25;3.08;;;;;;;29.22;47.05;99121.91;1677092;84;21090;-65
2021/06/23 08:01:15;;;;;;;5.20;2.50;;;;;;;29.17;47.13;99127.03;1687186;85;20958;-66
2021/06/23 08:09:03;;;;;;;13.13;2.87;;;;;;;29.14;47.85;99118.36;1687200;85;21042;-63
2021/06/23 08:11:33;;;;;;;5.30;2.65;;;;;;;29.12;48.56;99132.44;1687085;84;20958;-65
2021/06/23 08:13:58;;;;;;;6.92;2.87;;;;;;;29.17;48.79;99135.90;1684349;83;21057;-66
2021/06/23 08:16:24;;;;;;;9.60;3.10;;;;;;;29.21;48.16;99130.96;1682476;84;21044;-66
2021/06/23 08:18:52;;;;;;;6.22;2.65;;;;;;;29.25;47.69;99134.41;1683672;85;21036;-66
2021/06/23 08:21:19;;;;;;;4.92;2.92;;;;;;;29.31;46.69;99144.38;1683691;83;21714;-66
2021/06/23 08:23:45;;;;;;;7.78;2.87;;;;;;;29.37;47.54;99135.58;1683281;84;21062;-66
2021/06/23 08:26:11;;;;;;;9.28;3.05;;;;;;;29.52;48.49;99136.87;1683277;84;21111;-65
2021/06/23 08:28:38;;;;;;;7.67;3.10;;;;;;;29.67;48.87;99135.44;1684274;85;21053;-65
2021/06/23 08:31:05;;;;;;;6.17;2.65;;;;;;;29.81;48.22;99134.51;1685144;83;21045;-65
2021/06/23 08:33:35;;;;;;;4.87;3.10;;;;;;;29.91;48.95;99133.67;1685692;83;21475;-66
2021/06/23 08:36:01;;;;;;;10.85;3.52;;;;;;;30.02;48.05;99135.00;1687569;85;21136;-65
2021/06/23 08:38:28;;;;;;;6.78;3.42;;;;;;;30.11;49.59;99129.80;1659838;86;21028;-67
2021/06/23 08:40:55;;;;;;;4.67;2.75;;;;;;;30.21;49.10;99124.07;1659879;85;21076;-65
2021/06/23 08:43:21;;;;;;;10.35;3.10;;;;;;;30.32;48.70;99124.87;1659926;86;21430;-65
2021/06/23 08:45:48;;;;;;;7.67;3.45;;;;;;;30.36;49.16;99126.97;1659922;86;21481;-66
2021/06/23 08:48:14;;;;;;;7.17;3.33;;;;;;;30.39;49.22;99132.42;1659842;86;21450;-64
2021/06/23 08:50:41;;;;;;;9.20;3.30;;;;;;;30.42;47.44;99138.73;1659683;85;20951;-63
2021/06/23 08:53:08;;;;;;;8.08;3.08;;;;;;;30.41;48.25;99141.94;1659932;86;21021;-66
2021/06/23 08:55:36;;;;;;;6.10;3.47;;;;;;;30.49;49.01;99142.30;1659834;86;21025;-65
2021/06/23 08:58:04;;;;;;;5.50;3.40;;;;;;;30.55;47.24;99145.56;1659718;86;20941;-65
2021/06/23 09:00:32;;;;;;;8.03;3.10;;;;;;;30.59;46.63;99140.59;1659829;86;21193;-64
2021/06/23 09:03:05;;;;;;;11.43;3.67;;;;;;;30.67;47.71;99139.92;1659697;86;21549;-63
2021/06/23 09:05:54;;;;;;;12.07;3.30;;;;;;;30.79;46.36;99149.04;1659925;86;21090;-65
2021/06/23 09:08:35;;;;;;;9.70;3.33;;;;;;;30.86;47.12;99159.81;1659188;86;20962;-67
2021/06/23 09:11:16;;;;;;;13.03;3.62;;;;;;;30.88;45.76;99159.10;1659988;86;21479;-66
2021/06/23 09:13:44;;;;;;;6.75;3.15;;;;;;;30.87;46.88;99159.30;1658115;86;21125;-66
2021/06/23 09:16:11;;;;;;;8.13;3.10;;;;;;;30.92;46.32;99161.70;1659810;86;20930;-66
2021/06/23 09:18:40;;;;;;;11.35;4.20;;;;;;;30.98;46.82;99158.19;1659962;85;21469;-66
2021/06/23 09:21:17;;;;;;;9.50;3.45;;;;;;;31.07;47.03;99160.19;1660034;86;21517;-66
2021/06/23 09:23:58;;;;;;;11.28;3.08;;;;;;;31.18;45.23;99160.16;1659935;86;21114;-66
2021/06/23 09:26:36;;;;;;;7.97;3.22;;;;;;;31.32;45.37;99155.95;1660167;86;21130;-65
2021/06/23 09:29:16;;;;;;;7.35;2.95;;;;;;;31.50;44.60;99166.09;1659787;86;20950;-66
2021/06/23 09:32:04;;;;;;;6.65;2.92;;;;;;;31.57;42.17;99162.08;1659910;86;21505;-66
2021/06/23 09:34:47;;;;;;;10.58;6.10;;;;;;;31.52;42.29;99168.06;1659783;86;21127;-65
2021/06/23 09:37:37;;;;;;;5.95;3.10;;;;;;;31.44;43.40;99171.77;1659880;86;21560;-65
2021/06/23 09:40:20;;;;;;;5.90;3.30;;;;;;;31.36;43.67;99177.36;1659821;85;21163;-65
2021/06/23 09:42:55;;;;;;;5.10;2.92;;;;;;;31.24;44.60;99174.93;1661890;85;21489;-66
2021/06/23 09:45:21;;;;;;;8.43;3.40;;;;;;;31.18;44.68;99179.77;1650536;86;20974;-67
2021/06/23 09:47:52;;;;;;;5.83;3.33;;;;;;;31.08;45.38;99176.63;1662610;85;20990;-67
2021/06/23 09:50:22;;;;;;;7.22;3.20;;;;;;;31.02;45.10;99174.22;1618091;86;21473;-66
2021/06/23 09:53:10;;;;;;;5.87;3.10;;;;;;;30.95;45.88;99173.91;1667783;85;21123;-67
2021/06/23 09:55:40;;;;;;;10.48;3.80;;;;;;;30.96;46.67;99175.05;1669830;85;21036;-67
2021/06/23 09:58:19;;;;;;;5.90;2.80;;;;;;;31.01;44.94;99179.28;1652522;85;21018;-69
2021/06/23 10:01:12;;;;;;;5.67;3.20;;;;;;;31.04;43.19;99184.77;1679760;84;21089;-67
2021/06/23 10:04:05;;;;;;;6.12;3.20;;;;;;;31.01;43.15;99183.82;1689020;83;20983;-67
2021/06/23 10:06:42;;;;;;;9.00;3.20;;;;;;;30.92;43.50;99182.36;1690698;83;21203;-66
2021/06/23 10:09:29;;;;;;;6.40;2.92;;;;;;;30.91;44.04;99180.19;1690555;84;21021;-68
2021/06/23 10:12:01;;;;;;;11.53;3.30;;;;;;;30.98;43.36;99191.77;1689006;85;21154;-66
2021/06/23 10:14:30;;;;;;;9.75;3.45;;;;;;;30.97;43.75;99179.91;1688689;84;21029;-66
2021/06/23 10:17:00;;;;;;;4.75;3.20;;;;;;;30.98;43.07;99189.08;1676440;85;21066;-67
2021/06/23 10:19:28;;;;;;;8.33;3.05;;;;;;;30.95;43.64;99184.65;1689437;85;21208;-66
2021/06/23 10:21:55;;;;;;;12.03;4.37;;;;;;;30.89;44.26;99186.27;1689416;85;20990;-66
2021/06/23 10:24:22;;;;;;;9.35;4.00;;;;;;;30.83;44.86;99177.67;1676358;85;20951;-66
2021/06/23 10:26:51;;;;;;;5.15;3.47;;;;;;;30.80;45.14;99180.23;1688846;85;20962;-65
2021/06/23 10:29:31;;;;;;;6.50;3.20;;;;;;;30.74;45.45;99172.17;1688720;84;21485;-64
2021/06/23 10:31:58;;;;;;;9.55;3.85;;;;;;;30.73;46.34;99171.86;1676462;85;21125;-67
2021/06/23 10:34:26;;;;;;;6.05;3.40;;;;;;;30.74;46.73;99166.80;1677396;85;21430;-68
2021/06/23 10:36:55;;;;;;;8.83;3.83;;;;;;;30.78;47.60;99173.41;1677368;85;21011;-70
2021/06/23 10:39:23;;;;;;;7.53;3.35;;;;;;;30.86;47.77;99176.44;1690025;83;20957;-68
2021/06/23 10:41:52;;;;;;;7.60;3.42;;;;;;;30.93;48.41;99170.08;1689531;84;21034;-67
2021/06/23 10:44:25;;;;;;;6.83;3.47;;;;;;;31.05;48.18;99179.19;1676081;84;21151;-66
2021/06/23 10:46:55;;;;;;;8.35;3.42;;;;;;;31.13;48.51;99188.97;1677823;85;20990;-66
2021/06/23 10:49:51;;;;;;;6.45;4.00;;;;;;;31.15;48.76;99183.71;1677841;84;20958;-65
2021/06/23 10:52:27;;;;;;;8.58;3.85;;;;;;;31.13;48.25;99172.86;1688817;84;21573;-66
2021/06/23 10:54:55;;;;;;;11.03;3.58;;;;;;;31.00;47.46;99179.48;1688808;85;21011;-67
2021/06/23 10:57:45;;;;;;;6.95;3.60;;;;;;;30.88;48.10;99170.36;1682761;84;21138;-64
2021/06/23 11:00:21;;;;;;;7.80;3.55;;;;;;;30.87;48.32;99175.41;1681155;84;21057;-66
2021/06/23 11:02:51;;;;;;;5.53;3.25;;;;;;;30.86;47.88;99167.88;1689697;84;21044;-64
2021/06/23 11:05:20;;;;;;;5.50;3.33;;;;;;;30.88;48.36;99165.81;1677777;84;21053;-67
2021/06/23 11:07:48;;;;;;;7.17;3.47;;;;;;;30.86;47.89;99164.36;1678450;85;21072;-66
2021/06/23 11:10:25;;;;;;;6.67;3.22;;;;;;;30.89;47.93;99166.12;1677911;84;21156;-66
2021/06/23 11:13:04;;;;;;;6.22;3.08;;;;;;;30.96;46.93;99164.31;1689391;84;21025;-67
2021/06/23 11:15:37;;;;;;;6.17;3.12;;;;;;;31.06;47.00;99166.08;1677035;85;20989;-65
2021/06/23 11:18:37;;;;;;;9.20;3.25;;;;;;;31.07;47.12;99166.91;1677437;84;21109;-65
2021/06/23 11:21:16;;;;;;;7.15;3.22;;;;;;;31.06;47.20;99168.77;1666394;85;21466;-66
2021/06/23 11:23:58;;;;;;;4.55;3.40;;;;;;;31.09;48.34;99165.68;1676467;85;21106;-66
2021/06/23 11:26:33;;;;;;;;;;;;;;;31.07;47.54;99158.84;1692183;84;20966;-68
2021/06/23 11:29:14;;;;;;;6.87;3.45;;;;;;;30.98;47.87;99147.96;1690383;85;20220;-65
2021/06/23 11:31:45;;;;;;;;;;;;;;;30.86;48.07;99151.77;1692728;83;20985;-67
2021/06/23 11:34:14;;;;;;;7.22;3.37;;;;;;;30.77;47.95;99151.64;1690507;85;20447;-66
2021/06/23 11:36:40;;;;;;;8.85;3.27;;;;;;;30.69;48.87;99145.09;1667718;85;21430;-69
2021/06/23 11:39:07;;;;;;;8.68;3.35;;;;;;;30.71;48.45;99151.92;1677122;85;21022;-65
2021/06/23 11:41:33;;;;;;;11.83;3.42;;;;;;;30.68;48.86;99146.95;1687008;83;20970;-66
2021/06/23 11:43:59;;;;;;;10.38;3.08;;;;;;;30.63;49.71;99145.38;1686478;85;20935;-64
2021/06/23 11:46:26;;;;;;;6.92;3.12;;;;;;;30.65;49.10;99143.83;1686242;85;21097;-66
2021/06/23 11:48:52;;;;;;;7.45;3.17;;;;;;;30.71;50.25;99141.19;1686013;85;21268;-65
2021/06/23 11:51:19;;;;;;;11.18;3.22;;;;;;;30.83;50.63;99141.42;1687277;83;21057;-65
2021/06/23 11:53:46;;;;;;;7.35;3.47;;;;;;;30.92;48.91;99131.34;1684901;85;21033;-67
2021/06/23 11:56:12;;;;;;;9.10;3.00;;;;;;;31.03;47.78;99134.77;1687648;83;21489;-66